Terminal Aerodrome Forecast
Issued by NWS Cleveland, OH

Home | Current Version | Previous Version | Text Only | Print | Product List | Glossary Off
Versions: 1 2 3 4 5 6 7 8 9 10 11 12 13

000
FTUS41 KCLE 191135
TAFERI
TAF
KERI 191135Z 1912/2012 16008KT P6SM BKN150
     FM191800 02008KT P6SM BKN100
     FM200000 13004KT P6SM BKN050=

USA.gov is the U.S. government's official web portal to all federal, state and local government web resources and services.